sensor_id;sensor_type;location;lat;lon;timestamp;temperature;humidity
7000;DHT22;3540;53.242;10.408;2023-04-03T00:01:30;0.50;1.00
7000;DHT22;3540;53.242;10.408;2023-04-03T00:03:56;0.50;1.00
7000;DHT22;3540;53.242;10.408;2023-04-03T00:06:22;0.50;1.00
7000;DHT22;3540;53.242;10.408;2023-04-03T00:08:48;0.50;1.00
7000;DHT22;3540;53.242;10.408;2023-04-03T00:11:15;0.50;1.00
7000;DHT22;3540;53.242;10.408;2023-04-03T00:13:40;0.40;1.00
7000;DHT22;3540;53.242;10.408;2023-04-03T00:16:07;0.40;1.00
7000;DHT22;3540;53.242;10.408;2023-04-03T00:18:33;0.40;1.00
7000;DHT22;3540;53.242;10.408;2023-04-03T00:20:59;0.40;1.00
7000;DHT22;3540;53.242;10.408;2023-04-03T00:23:25;0.50;1.00
7000;DHT22;3540;53.242;10.408;2023-04-03T00:25:51;0.40;1.00
7000;DHT22;3540;53.242;10.408;2023-04-03T00:28:17;0.40;1.00
7000;DHT22;3540;53.242;10.408;2023-04-03T00:30:43;0.30;1.00
7000;DHT22;3540;53.242;10.408;2023-04-03T00:33:12;0.30;1.00
7000;DHT22;3540;53.242;10.408;2023-04-03T00:35:37;0.30;1.00
7000;DHT22;3540;53.242;10.408;2023-04-03T00:38:03;0.30;1.00
7000;DHT22;3540;53.242;10.408;2023-04-03T00:40:34;0.30;1.00
7000;DHT22;3540;53.242;10.408;2023-04-03T00:43:00;0.20;1.00
7000;DHT22;3540;53.242;10.408;2023-04-03T00:45:40;0.20;1.00
7000;DHT22;3540;53.242;10.408;2023-04-03T00:48:09;0.20;1.00
7000;DHT22;3540;53.242;10.408;2023-04-03T00:50:38;0.30;1.00
7000;DHT22;3540;53.242;10.408;2023-04-03T00:53:06;0.20;1.00
7000;DHT22;3540;53.242;10.408;2023-04-03T00:55:34;0.30;1.00
7000;DHT22;3540;53.242;10.408;2023-04-03T00:58:01;0.30;1.00
7000;DHT22;3540;53.242;10.408;2023-04-03T01:00:28;0.20;1.00
7000;DHT22;3540;53.242;10.408;2023-04-03T01:02:53;0.20;1.00
7000;DHT22;3540;53.242;10.408;2023-04-03T01:05:20;0.10;1.00
7000;DHT22;3540;53.242;10.408;2023-04-03T01:07:47;0.10;1.00
7000;DHT22;3540;53.242;10.408;2023-04-03T01:10:15;0.10;1.00
7000;DHT22;3540;53.242;10.408;2023-04-03T01:12:43;0.00;1.00
7000;DHT22;3540;53.242;10.408;2023-04-03T01:15:22;0.00;1.00
7000;DHT22;3540;53.242;10.408;2023-04-03T01:17:56;-0.10;1.00
7000;DHT22;3540;53.242;10.408;2023-04-03T01:25:49;-0.20;1.00
7000;DHT22;3540;53.242;10.408;2023-04-03T01:28:35;-0.30;1.00
7000;DHT22;3540;53.242;10.408;2023-04-03T01:31:15;-0.30;1.00
7000;DHT22;3540;53.242;10.408;2023-04-03T01:33:44;-0.40;1.00
7000;DHT22;3540;53.242;10.408;2023-04-03T01:36:16;-0.50;1.00
7000;DHT22;3540;53.242;10.408;2023-04-03T01:38:42;-0.60;1.00
7000;DHT22;3540;53.242;10.408;2023-04-03T01:41:08;-0.60;1.00
7000;DHT22;3540;53.242;10.408;2023-04-03T01:43:34;-0.50;1.00
7000;DHT22;3540;53.242;10.408;2023-04-03T01:45:59;-0.50;1.00
7000;DHT22;3540;53.242;10.408;2023-04-03T01:48:25;-0.60;1.00
7000;DHT22;3540;53.242;10.408;2023-04-03T01:50:50;-0.60;1.00
7000;DHT22;3540;53.242;10.408;2023-04-03T01:53:16;-0.70;1.00
7000;DHT22;3540;53.242;10.408;2023-04-03T01:55:42;-0.70;1.00
7000;DHT22;3540;53.242;10.408;2023-04-03T01:58:07;-0.80;1.00
7000;DHT22;3540;53.242;10.408;2023-04-03T02:00:33;-0.80;1.00
7000;DHT22;3540;53.242;10.408;2023-04-03T02:02:59;-0.80;1.00
7000;DHT22;3540;53.242;10.408;2023-04-03T02:05:24;-0.80;1.00
7000;DHT22;3540;53.242;10.408;2023-04-03T02:07:50;-0.80;1.00
7000;DHT22;3540;53.242;10.408;2023-04-03T02:10:16;-0.70;1.00
7000;DHT22;3540;53.242;10.408;2023-04-03T02:12:41;-0.70;1.00
7000;DHT22;3540;53.242;10.408;2023-04-03T02:15:07;-0.70;1.00
7000;DHT22;3540;53.242;10.408;2023-04-03T02:17:33;-0.60;20.10
7000;DHT22;3540;53.242;10.408;2023-04-03T02:19:59;-0.60;1.00
7000;DHT22;3540;53.242;10.408;2023-04-03T02:22:25;-0.70;1.00
7000;DHT22;3540;53.242;10.408;2023-04-03T02:24:51;-0.70;1.60
7000;DHT22;3540;53.242;10.408;2023-04-03T02:27:17;-0.80;1.00
7000;DHT22;3540;53.242;10.408;2023-04-03T02:29:43;-0.80;7.70
7000;DHT22;3540;53.242;10.408;2023-04-03T02:32:08;-0.70;43.40
7000;DHT22;3540;53.242;10.408;2023-04-03T02:34:34;-0.60;43.50
7000;DHT22;3540;53.242;10.408;2023-04-03T02:37:00;-0.60;34.50
7000;DHT22;3540;53.242;10.408;2023-04-03T02:39:25;-0.60;34.30
7000;DHT22;3540;53.242;10.408;2023-04-03T02:41:51;-0.60;20.50
7000;DHT22;3540;53.242;10.408;2023-04-03T02:44:17;-0.60;15.90
7000;DHT22;3540;53.242;10.408;2023-04-03T02:46:43;-0.70;9.30
7000;DHT22;3540;53.242;10.408;2023-04-03T02:49:08;-0.70;14.60
7000;DHT22;3540;53.242;10.408;2023-04-03T02:51:34;-0.70;23.10
7000;DHT22;3540;53.242;10.408;2023-04-03T02:54:00;-0.70;17.20
7000;DHT22;3540;53.242;10.408;2023-04-03T02:56:26;-0.80;17.10
7000;DHT22;3540;53.242;10.408;2023-04-03T02:58:52;-0.80;27.90
7000;DHT22;3540;53.242;10.408;2023-04-03T03:01:18;-0.80;30.10
7000;DHT22;3540;53.242;10.408;2023-04-03T03:03:43;-0.80;40.00
7000;DHT22;3540;53.242;10.408;2023-04-03T03:06:17;-0.90;43.50
7000;DHT22;3540;53.242;10.408;2023-04-03T03:08:43;-0.90;44.20
7000;DHT22;3540;53.242;10.408;2023-04-03T03:11:10;-0.90;59.60
7000;DHT22;3540;53.242;10.408;2023-04-03T03:13:36;-0.90;78.70
7000;DHT22;3540;53.242;10.408;2023-04-03T03:16:02;-1.00;94.90
7000;DHT22;3540;53.242;10.408;2023-04-03T03:18:28;-1.00;99.90
7000;DHT22;3540;53.242;10.408;2023-04-03T03:20:56;-1.00;99.90
7000;DHT22;3540;53.242;10.408;2023-04-03T03:23:23;-1.00;99.90
7000;DHT22;3540;53.242;10.408;2023-04-03T03:25:48;-1.00;99.90
7000;DHT22;3540;53.242;10.408;2023-04-03T03:28:14;-1.00;99.90
7000;DHT22;3540;53.242;10.408;2023-04-03T03:30:40;-1.10;99.90
7000;DHT22;3540;53.242;10.408;2023-04-03T03:33:06;-1.20;99.90
7000;DHT22;3540;53.242;10.408;2023-04-03T03:35:32;-1.20;99.90
7000;DHT22;3540;53.242;10.408;2023-04-03T03:37:57;-1.20;99.90
7000;DHT22;3540;53.242;10.408;2023-04-03T03:40:23;-1.20;99.90
7000;DHT22;3540;53.242;10.408;2023-04-03T03:42:48;-1.30;99.90
7000;DHT22;3540;53.242;10.408;2023-04-03T03:45:14;-1.30;99.90
7000;DHT22;3540;53.242;10.408;2023-04-03T03:47:40;-1.30;99.90
7000;DHT22;3540;53.242;10.408;2023-04-03T03:50:06;-1.30;99.90
7000;DHT22;3540;53.242;10.408;2023-04-03T03:52:32;-1.30;99.90
7000;DHT22;3540;53.242;10.408;2023-04-03T03:54:57;-1.30;99.90
7000;DHT22;3540;53.242;10.408;2023-04-03T03:57:23;-1.30;99.90
7000;DHT22;3540;53.242;10.408;2023-04-03T03:59:48;-1.40;99.90
7000;DHT22;3540;53.242;10.408;2023-04-03T04:02:15;-1.40;99.90
7000;DHT22;3540;53.242;10.408;2023-04-03T04:04:41;-1.40;99.90
7000;DHT22;3540;53.242;10.408;2023-04-03T04:07:07;-1.40;99.90
7000;DHT22;3540;53.242;10.408;2023-04-03T04:09:33;-1.40;99.90
7000;DHT22;3540;53.242;10.408;2023-04-03T04:11:58;-1.40;99.90
7000;DHT22;3540;53.242;10.408;2023-04-03T04:14:24;-1.50;99.90
7000;DHT22;3540;53.242;10.408;2023-04-03T04:16:50;-1.50;99.90
7000;DHT22;3540;53.242;10.408;2023-04-03T04:19:15;-1.50;99.90
7000;DHT22;3540;53.242;10.408;2023-04-03T04:21:41;-1.50;99.90
7000;DHT22;3540;53.242;10.408;2023-04-03T04:24:08;-1.50;99.90
7000;DHT22;3540;53.242;10.408;2023-04-03T04:26:34;-1.50;1.00
7000;DHT22;3540;53.242;10.408;2023-04-03T04:28:59;-1.40;1.00
7000;DHT22;3540;53.242;10.408;2023-04-03T04:31:25;-1.40;1.00
7000;DHT22;3540;53.242;10.408;2023-04-03T04:33:51;-1.40;1.00
7000;DHT22;3540;53.242;10.408;2023-04-03T04:36:16;-1.40;1.00
7000;DHT22;3540;53.242;10.408;2023-04-03T04:38:42;-1.40;1.00
7000;DHT22;3540;53.242;10.408;2023-04-03T04:41:08;-1.30;1.00
7000;DHT22;3540;53.242;10.408;2023-04-03T04:43:34;-1.30;1.00
7000;DHT22;3540;53.242;10.408;2023-04-03T04:46:06;-1.30;1.00
7000;DHT22;3540;53.242;10.408;2023-04-03T04:48:32;-1.20;1.00
7000;DHT22;3540;53.242;10.408;2023-04-03T04:50:58;-1.20;1.00
7000;DHT22;3540;53.242;10.408;2023-04-03T04:53:24;-1.10;1.00
7000;DHT22;3540;53.242;10.408;2023-04-03T04:55:49;-1.10;1.00
7000;DHT22;3540;53.242;10.408;2023-04-03T04:58:15;-1.10;1.00
7000;DHT22;3540;53.242;10.408;2023-04-03T05:00:41;-1.10;1.00
7000;DHT22;3540;53.242;10.408;2023-04-03T05:03:07;-1.00;1.00
7000;DHT22;3540;53.242;10.408;2023-04-03T05:05:32;-0.90;1.00
7000;DHT22;3540;53.242;10.408;2023-04-03T05:07:58;-0.80;1.00
7000;DHT22;3540;53.242;10.408;2023-04-03T05:10:24;-0.80;1.00
7000;DHT22;3540;53.242;10.408;2023-04-03T05:12:49;-0.80;1.00
7000;DHT22;3540;53.242;10.408;2023-04-03T05:15:15;-0.80;99.90
7000;DHT22;3540;53.242;10.408;2023-04-03T05:17:41;-0.80;99.90
7000;DHT22;3540;53.242;10.408;2023-04-03T05:20:07;-0.70;99.90
7000;DHT22;3540;53.242;10.408;2023-04-03T05:22:33;-0.70;99.90
7000;DHT22;3540;53.242;10.408;2023-04-03T05:24:58;-0.70;99.90
7000;DHT22;3540;53.242;10.408;2023-04-03T05:27:24;-0.70;99.90
7000;DHT22;3540;53.242;10.408;2023-04-03T05:29:50;-0.60;99.90
7000;DHT22;3540;53.242;10.408;2023-04-03T05:32:16;-0.60;99.90
7000;DHT22;3540;53.242;10.408;2023-04-03T05:34:42;-0.50;99.90
7000;DHT22;3540;53.242;10.408;2023-04-03T05:37:07;-0.60;99.90
7000;DHT22;3540;53.242;10.408;2023-04-03T05:39:33;-0.50;99.90
7000;DHT22;3540;53.242;10.408;2023-04-03T05:41:59;-0.50;99.90
7000;DHT22;3540;53.242;10.408;2023-04-03T05:44:25;-0.40;99.90
7000;DHT22;3540;53.242;10.408;2023-04-03T05:46:51;-0.20;99.90
7000;DHT22;3540;53.242;10.408;2023-04-03T05:49:16;-0.20;99.90
7000;DHT22;3540;53.242;10.408;2023-04-03T05:51:42;-0.20;99.90
7000;DHT22;3540;53.242;10.408;2023-04-03T05:54:13;-0.20;99.90
7000;DHT22;3540;53.242;10.408;2023-04-03T05:56:41;-0.10;99.90
7000;DHT22;3540;53.242;10.408;2023-04-03T05:59:07;-0.10;64.70
7000;DHT22;3540;53.242;10.408;2023-04-03T06:01:32;-0.10;23.20
7000;DHT22;3540;53.242;10.408;2023-04-03T06:04:00;-0.10;7.00
7000;DHT22;3540;53.242;10.408;2023-04-03T06:06:26;0.00;1.00
7000;DHT22;3540;53.242;10.408;2023-04-03T06:08:51;0.10;1.00
7000;DHT22;3540;53.242;10.408;2023-04-03T06:11:17;0.20;1.00
7000;DHT22;3540;53.242;10.408;2023-04-03T06:13:43;0.30;1.00
7000;DHT22;3540;53.242;10.408;2023-04-03T06:16:12;0.40;1.00
7000;DHT22;3540;53.242;10.408;2023-04-03T06:18:40;0.40;1.00
7000;DHT22;3540;53.242;10.408;2023-04-03T06:21:06;0.50;1.00
7000;DHT22;3540;53.242;10.408;2023-04-03T06:23:33;0.50;1.00
7000;DHT22;3540;53.242;10.408;2023-04-03T06:25:59;0.60;1.00
7000;DHT22;3540;53.242;10.408;2023-04-03T06:28:25;0.70;1.00
7000;DHT22;3540;53.242;10.408;2023-04-03T06:30:50;0.70;1.00
7000;DHT22;3540;53.242;10.408;2023-04-03T06:33:16;0.80;1.00
7000;DHT22;3540;53.242;10.408;2023-04-03T06:35:42;0.90;1.00
7000;DHT22;3540;53.242;10.408;2023-04-03T06:38:07;0.90;1.00
7000;DHT22;3540;53.242;10.408;2023-04-03T06:40:35;1.00;1.00
7000;DHT22;3540;53.242;10.408;2023-04-03T06:43:01;1.00;1.00
7000;DHT22;3540;53.242;10.408;2023-04-03T06:45:27;1.20;1.00
7000;DHT22;3540;53.242;10.408;2023-04-03T06:47:53;1.20;1.00
7000;DHT22;3540;53.242;10.408;2023-04-03T06:50:18;1.20;1.00
7000;DHT22;3540;53.242;10.408;2023-04-03T06:52:45;1.40;1.00
7000;DHT22;3540;53.242;10.408;2023-04-03T06:55:11;1.60;1.00
7000;DHT22;3540;53.242;10.408;2023-04-03T06:57:37;1.70;1.00
7000;DHT22;3540;53.242;10.408;2023-04-03T07:00:04;1.80;1.00
7000;DHT22;3540;53.242;10.408;2023-04-03T07:02:31;1.90;1.00
7000;DHT22;3540;53.242;10.408;2023-04-03T07:04:57;2.10;1.00
7000;DHT22;3540;53.242;10.408;2023-04-03T07:07:22;2.30;1.00
7000;DHT22;3540;53.242;10.408;2023-04-03T07:09:48;2.50;1.00
7000;DHT22;3540;53.242;10.408;2023-04-03T07:12:14;2.60;1.00
7000;DHT22;3540;53.242;10.408;2023-04-03T07:14:41;2.70;1.00
7000;DHT22;3540;53.242;10.408;2023-04-03T07:17:06;2.80;1.00
7000;DHT22;3540;53.242;10.408;2023-04-03T07:19:32;2.80;1.00
7000;DHT22;3540;53.242;10.408;2023-04-03T07:21:58;2.90;1.00
7000;DHT22;3540;53.242;10.408;2023-04-03T07:24:23;3.10;1.00
7000;DHT22;3540;53.242;10.408;2023-04-03T07:26:50;3.10;1.00
7000;DHT22;3540;53.242;10.408;2023-04-03T07:29:16;3.20;1.00
7000;DHT22;3540;53.242;10.408;2023-04-03T07:31:42;3.40;1.00
7000;DHT22;3540;53.242;10.408;2023-04-03T07:34:09;3.40;99.90
7000;DHT22;3540;53.242;10.408;2023-04-03T07:36:35;3.60;99.90
7000;DHT22;3540;53.242;10.408;2023-04-03T07:39:01;3.40;99.90
7000;DHT22;3540;53.242;10.408;2023-04-03T07:41:27;3.50;99.90
7000;DHT22;3540;53.242;10.408;2023-04-03T07:43:54;3.60;99.90
7000;DHT22;3540;53.242;10.408;2023-04-03T07:46:20;3.60;99.90
7000;DHT22;3540;53.242;10.408;2023-04-03T07:48:46;3.50;99.90
7000;DHT22;3540;53.242;10.408;2023-04-03T07:51:12;3.50;99.90
7000;DHT22;3540;53.242;10.408;2023-04-03T07:53:38;3.70;99.90
7000;DHT22;3540;53.242;10.408;2023-04-03T07:56:04;3.80;99.90
7000;DHT22;3540;53.242;10.408;2023-04-03T07:58:30;3.80;99.90
7000;DHT22;3540;53.242;10.408;2023-04-03T08:00:55;3.80;99.90
7000;DHT22;3540;53.242;10.408;2023-04-03T08:03:21;4.00;99.90
7000;DHT22;3540;53.242;10.408;2023-04-03T08:05:49;3.90;99.90
7000;DHT22;3540;53.242;10.408;2023-04-03T08:08:21;4.20;99.90
7000;DHT22;3540;53.242;10.408;2023-04-03T08:10:53;4.20;99.90
7000;DHT22;3540;53.242;10.408;2023-04-03T08:13:20;4.40;99.90
7000;DHT22;3540;53.242;10.408;2023-04-03T08:15:46;4.20;99.90
7000;DHT22;3540;53.242;10.408;2023-04-03T08:18:13;4.50;99.90
7000;DHT22;3540;53.242;10.408;2023-04-03T08:20:39;4.50;99.90
7000;DHT22;3540;53.242;10.408;2023-04-03T08:23:06;4.20;99.90
7000;DHT22;3540;53.242;10.408;2023-04-03T08:25:33;4.30;99.90
7000;DHT22;3540;53.242;10.408;2023-04-03T08:27:58;4.50;99.90
7000;DHT22;3540;53.242;10.408;2023-04-03T08:30:24;4.70;99.90
7000;DHT22;3540;53.242;10.408;2023-04-03T08:32:49;4.40;99.90
7000;DHT22;3540;53.242;10.408;2023-04-03T08:35:15;4.60;99.90
7000;DHT22;3540;53.242;10.408;2023-04-03T08:37:41;4.50;99.90
7000;DHT22;3540;53.242;10.408;2023-04-03T08:40:10;4.80;99.90
7000;DHT22;3540;53.242;10.408;2023-04-03T08:45:35;4.90;99.90
7000;DHT22;3540;53.242;10.408;2023-04-03T08:48:13;5.10;99.90
7000;DHT22;3540;53.242;10.408;2023-04-03T08:50:43;5.20;99.90
7000;DHT22;3540;53.242;10.408;2023-04-03T08:53:32;5.50;99.90
7000;DHT22;3540;53.242;10.408;2023-04-03T08:56:04;5.40;99.90
7000;DHT22;3540;53.242;10.408;2023-04-03T08:58:49;5.50;99.90
7000;DHT22;3540;53.242;10.408;2023-04-03T09:01:20;5.20;99.90
7000;DHT22;3540;53.242;10.408;2023-04-03T09:03:46;5.20;99.90
7000;DHT22;3540;53.242;10.408;2023-04-03T09:06:22;5.10;99.90
7000;DHT22;3540;53.242;10.408;2023-04-03T09:16:49;5.80;99.90
7000;DHT22;3540;53.242;10.408;2023-04-03T09:21:50;5.00;99.90
7000;DHT22;3540;53.242;10.408;2023-04-03T09:24:16;5.10;99.90
7000;DHT22;3540;53.242;10.408;2023-04-03T09:26:53;5.30;99.90
7000;DHT22;3540;53.242;10.408;2023-04-03T09:29:22;4.90;99.90
7000;DHT22;3540;53.242;10.408;2023-04-03T09:32:00;5.30;99.90
7000;DHT22;3540;53.242;10.408;2023-04-03T09:36:55;5.30;99.90
7000;DHT22;3540;53.242;10.408;2023-04-03T09:39:23;5.70;99.90
7000;DHT22;3540;53.242;10.408;2023-04-03T09:42:15;5.60;99.90
7000;DHT22;3540;53.242;10.408;2023-04-03T09:44:42;5.80;99.90
7000;DHT22;3540;53.242;10.408;2023-04-03T09:47:19;5.60;99.90
7000;DHT22;3540;53.242;10.408;2023-04-03T09:49:45;5.90;99.90
7000;DHT22;3540;53.242;10.408;2023-04-03T09:52:25;6.20;99.90
7000;DHT22;3540;53.242;10.408;2023-04-03T09:54:51;6.60;99.90
7000;DHT22;3540;53.242;10.408;2023-04-03T09:57:17;6.60;99.90
7000;DHT22;3540;53.242;10.408;2023-04-03T10:00:04;6.00;99.90
7000;DHT22;3540;53.242;10.408;2023-04-03T10:02:39;6.30;99.90
7000;DHT22;3540;53.242;10.408;2023-04-03T10:05:30;6.10;99.90
7000;DHT22;3540;53.242;10.408;2023-04-03T10:10:44;6.30;99.90
7000;DHT22;3540;53.242;10.408;2023-04-03T10:15:56;6.50;99.90
7000;DHT22;3540;53.242;10.408;2023-04-03T10:21:38;7.00;99.90
7000;DHT22;3540;53.242;10.408;2023-04-03T10:24:25;6.70;99.90
7000;DHT22;3540;53.242;10.408;2023-04-03T10:27:04;7.30;99.90
7000;DHT22;3540;53.242;10.408;2023-04-03T10:34:45;7.10;99.90
7000;DHT22;3540;53.242;10.408;2023-04-03T10:40:29;6.40;99.90
7000;DHT22;3540;53.242;10.408;2023-04-03T10:43:12;6.40;99.90
7000;DHT22;3540;53.242;10.408;2023-04-03T10:51:25;6.70;99.90
7000;DHT22;3540;53.242;10.408;2023-04-03T10:54:08;6.70;99.90
7000;DHT22;3540;53.242;10.408;2023-04-03T10:56:42;6.20;99.90
7000;DHT22;3540;53.242;10.408;2023-04-03T11:02:45;6.80;99.90
7000;DHT22;3540;53.242;10.408;2023-04-03T11:04:47;7.10;99.90
7000;DHT22;3540;53.242;10.408;2023-04-03T11:09:44;7.30;99.90
7000;DHT22;3540;53.242;10.408;2023-04-03T11:12:40;7.40;99.90
7000;DHT22;3540;53.242;10.408;2023-04-03T11:15:15;7.60;99.90
7000;DHT22;3540;53.242;10.408;2023-04-03T11:17:47;7.60;99.90
7000;DHT22;3540;53.242;10.408;2023-04-03T11:20:23;7.90;99.90
7000;DHT22;3540;53.242;10.408;2023-04-03T11:23:05;6.70;99.90
7000;DHT22;3540;53.242;10.408;2023-04-03T11:25:34;6.30;99.90
7000;DHT22;3540;53.242;10.408;2023-04-03T11:28:04;6.50;99.90
7000;DHT22;3540;53.242;10.408;2023-04-03T11:30:51;6.40;99.90
7000;DHT22;3540;53.242;10.408;2023-04-03T11:35:51;6.40;99.90
7000;DHT22;3540;53.242;10.408;2023-04-03T11:38:27;6.50;99.90
7000;DHT22;3540;53.242;10.408;2023-04-03T11:40:55;6.50;99.90
7000;DHT22;3540;53.242;10.408;2023-04-03T11:43:28;6.30;99.90
7000;DHT22;3540;53.242;10.408;2023-04-03T11:53:37;6.10;99.90
7000;DHT22;3540;53.242;10.408;2023-04-03T12:01:44;7.20;99.90
7000;DHT22;3540;53.242;10.408;2023-04-03T12:04:12;7.70;99.90
7000;DHT22;3540;53.242;10.408;2023-04-03T12:09:25;7.60;99.90
7000;DHT22;3540;53.242;10.408;2023-04-03T12:11:52;7.20;99.90
7000;DHT22;3540;53.242;10.408;2023-04-03T12:14:17;7.10;99.90
7000;DHT22;3540;53.242;10.408;2023-04-03T12:16:46;7.40;99.90
7000;DHT22;3540;53.242;10.408;2023-04-03T12:26:47;6.70;99.90
7000;DHT22;3540;53.242;10.408;2023-04-03T12:39:59;6.70;99.90
7000;DHT22;3540;53.242;10.408;2023-04-03T12:42:42;6.40;99.90
7000;DHT22;3540;53.242;10.408;2023-04-03T12:45:24;6.60;99.90
7000;DHT22;3540;53.242;10.408;2023-04-03T12:47:53;6.60;99.90
7000;DHT22;3540;53.242;10.408;2023-04-03T12:50:23;6.50;99.90
7000;DHT22;3540;53.242;10.408;2023-04-03T12:55:22;6.60;99.90
7000;DHT22;3540;53.242;10.408;2023-04-03T12:57:47;6.90;99.90
7000;DHT22;3540;53.242;10.408;2023-04-03T13:00:40;7.40;99.90
7000;DHT22;3540;53.242;10.408;2023-04-03T13:03:07;7.00;99.90
7000;DHT22;3540;53.242;10.408;2023-04-03T13:05:44;7.00;99.90
7000;DHT22;3540;53.242;10.408;2023-04-03T13:08:12;6.60;99.90
7000;DHT22;3540;53.242;10.408;2023-04-03T13:10:56;6.30;99.90
7000;DHT22;3540;53.242;10.408;2023-04-03T13:13:22;6.40;99.90
7000;DHT22;3540;53.242;10.408;2023-04-03T13:15:49;6.90;99.90
7000;DHT22;3540;53.242;10.408;2023-04-03T13:18:29;7.20;99.90
7000;DHT22;3540;53.242;10.408;2023-04-03T13:21:18;7.40;99.90
7000;DHT22;3540;53.242;10.408;2023-04-03T13:23:48;7.70;99.90
7000;DHT22;3540;53.242;10.408;2023-04-03T13:26:20;7.80;99.90
7000;DHT22;3540;53.242;10.408;2023-04-03T13:28:47;8.00;99.90
7000;DHT22;3540;53.242;10.408;2023-04-03T13:37:06;7.40;99.90
7000;DHT22;3540;53.242;10.408;2023-04-03T13:39:28;7.30;99.90
7000;DHT22;3540;53.242;10.408;2023-04-03T13:41:56;6.90;99.90
7000;DHT22;3540;53.242;10.408;2023-04-03T13:46:50;7.10;99.90
7000;DHT22;3540;53.242;10.408;2023-04-03T13:49:19;7.10;99.90
7000;DHT22;3540;53.242;10.408;2023-04-03T13:51:45;7.10;99.90
7000;DHT22;3540;53.242;10.408;2023-04-03T13:56:57;7.30;99.90
7000;DHT22;3540;53.242;10.408;2023-04-03T13:59:35;7.70;99.90
7000;DHT22;3540;53.242;10.408;2023-04-03T14:06:55;7.20;99.90
7000;DHT22;3540;53.242;10.408;2023-04-03T14:09:22;7.10;99.90
7000;DHT22;3540;53.242;10.408;2023-04-03T14:11:50;7.30;99.90
7000;DHT22;3540;53.242;10.408;2023-04-03T14:14:23;7.30;99.90
7000;DHT22;3540;53.242;10.408;2023-04-03T14:16:57;7.60;99.90
7000;DHT22;3540;53.242;10.408;2023-04-03T14:19:31;7.40;99.90
7000;DHT22;3540;53.242;10.408;2023-04-03T14:21:59;7.30;99.90
7000;DHT22;3540;53.242;10.408;2023-04-03T14:24:25;6.90;99.90
7000;DHT22;3540;53.242;10.408;2023-04-03T14:26:54;7.00;99.90
7000;DHT22;3540;53.242;10.408;2023-04-03T14:29:20;7.30;99.90
7000;DHT22;3540;53.242;10.408;2023-04-03T14:31:48;7.30;99.90
7000;DHT22;3540;53.242;10.408;2023-04-03T14:34:14;7.10;99.90
7000;DHT22;3540;53.242;10.408;2023-04-03T14:36:41;7.10;99.90
7000;DHT22;3540;53.242;10.408;2023-04-03T14:39:11;6.90;99.90
7000;DHT22;3540;53.242;10.408;2023-04-03T14:41:41;7.00;99.90
7000;DHT22;3540;53.242;10.408;2023-04-03T14:44:07;6.70;99.90
7000;DHT22;3540;53.242;10.408;2023-04-03T14:46:36;6.80;99.90
7000;DHT22;3540;53.242;10.408;2023-04-03T14:49:03;7.00;99.90
7000;DHT22;3540;53.242;10.408;2023-04-03T14:51:33;6.80;99.90
7000;DHT22;3540;53.242;10.408;2023-04-03T14:53:59;6.80;99.90
7000;DHT22;3540;53.242;10.408;2023-04-03T14:56:26;6.50;99.90
7000;DHT22;3540;53.242;10.408;2023-04-03T14:59:00;6.90;99.90
7000;DHT22;3540;53.242;10.408;2023-04-03T15:01:27;7.20;99.90
7000;DHT22;3540;53.242;10.408;2023-04-03T15:03:53;7.10;99.90
7000;DHT22;3540;53.242;10.408;2023-04-03T15:06:19;6.60;99.90
7000;DHT22;3540;53.242;10.408;2023-04-03T15:08:47;6.50;99.90
7000;DHT22;3540;53.242;10.408;2023-04-03T15:11:13;6.60;99.90
7000;DHT22;3540;53.242;10.408;2023-04-03T15:13:39;6.80;99.90
7000;DHT22;3540;53.242;10.408;2023-04-03T15:16:11;7.00;99.90
7000;DHT22;3540;53.242;10.408;2023-04-03T15:18:38;7.00;99.90
7000;DHT22;3540;53.242;10.408;2023-04-03T15:21:04;7.00;99.90
7000;DHT22;3540;53.242;10.408;2023-04-03T15:23:31;7.10;99.90
7000;DHT22;3540;53.242;10.408;2023-04-03T15:25:57;6.90;99.90
7000;DHT22;3540;53.242;10.408;2023-04-03T15:30:57;6.70;99.90
7000;DHT22;3540;53.242;10.408;2023-04-03T15:33:23;6.60;99.90
7000;DHT22;3540;53.242;10.408;2023-04-03T15:35:49;6.60;99.90
7000;DHT22;3540;53.242;10.408;2023-04-03T15:38:15;6.80;99.90
7000;DHT22;3540;53.242;10.408;2023-04-03T15:40:41;6.70;99.90
7000;DHT22;3540;53.242;10.408;2023-04-03T15:43:08;6.60;99.90
7000;DHT22;3540;53.242;10.408;2023-04-03T15:45:35;6.70;99.90
7000;DHT22;3540;53.242;10.408;2023-04-03T15:48:02;6.70;99.90
7000;DHT22;3540;53.242;10.408;2023-04-03T15:50:28;6.50;99.90
7000;DHT22;3540;53.242;10.408;2023-04-03T15:52:54;6.40;99.90
7000;DHT22;3540;53.242;10.408;2023-04-03T15:55:25;6.50;99.90
7000;DHT22;3540;53.242;10.408;2023-04-03T15:57:51;6.50;99.90
7000;DHT22;3540;53.242;10.408;2023-04-03T16:00:17;6.50;99.90
7000;DHT22;3540;53.242;10.408;2023-04-03T16:02:45;6.50;99.90
7000;DHT22;3540;53.242;10.408;2023-04-03T16:05:12;6.30;99.90
7000;DHT22;3540;53.242;10.408;2023-04-03T16:07:41;6.20;99.90
7000;DHT22;3540;53.242;10.408;2023-04-03T16:10:08;6.50;99.90
7000;DHT22;3540;53.242;10.408;2023-04-03T16:12:34;6.50;99.90
7000;DHT22;3540;53.242;10.408;2023-04-03T16:15:00;6.60;99.90
7000;DHT22;3540;53.242;10.408;2023-04-03T16:17:27;6.70;99.90
7000;DHT22;3540;53.242;10.408;2023-04-03T16:19:54;6.60;99.90
7000;DHT22;3540;53.242;10.408;2023-04-03T16:22:21;6.40;99.90
7000;DHT22;3540;53.242;10.408;2023-04-03T16:24:48;6.40;99.90
7000;DHT22;3540;53.242;10.408;2023-04-03T16:27:15;6.10;99.90
7000;DHT22;3540;53.242;10.408;2023-04-03T16:29:40;6.20;99.90
7000;DHT22;3540;53.242;10.408;2023-04-03T16:32:06;6.10;99.90
7000;DHT22;3540;53.242;10.408;2023-04-03T16:34:32;5.80;99.90
7000;DHT22;3540;53.242;10.408;2023-04-03T16:36:58;5.90;99.90
7000;DHT22;3540;53.242;10.408;2023-04-03T16:39:23;6.00;99.90
7000;DHT22;3540;53.242;10.408;2023-04-03T16:41:49;6.00;99.90
7000;DHT22;3540;53.242;10.408;2023-04-03T16:44:15;5.80;99.90
7000;DHT22;3540;53.242;10.408;2023-04-03T16:46:41;5.70;99.90
7000;DHT22;3540;53.242;10.408;2023-04-03T16:49:06;5.80;99.90
7000;DHT22;3540;53.242;10.408;2023-04-03T16:51:32;5.70;99.90
7000;DHT22;3540;53.242;10.408;2023-04-03T16:53:58;5.70;99.90
7000;DHT22;3540;53.242;10.408;2023-04-03T16:56:24;5.80;99.90
7000;DHT22;3540;53.242;10.408;2023-04-03T16:58:52;5.90;99.90
7000;DHT22;3540;53.242;10.408;2023-04-03T17:01:19;6.10;99.90
7000;DHT22;3540;53.242;10.408;2023-04-03T17:03:45;6.30;99.90
7000;DHT22;3540;53.242;10.408;2023-04-03T17:06:12;6.10;99.90
7000;DHT22;3540;53.242;10.408;2023-04-03T17:08:46;6.00;99.90
7000;DHT22;3540;53.242;10.408;2023-04-03T17:11:13;5.50;99.90
7000;DHT22;3540;53.242;10.408;2023-04-03T17:13:38;5.60;99.90
7000;DHT22;3540;53.242;10.408;2023-04-03T17:16:06;5.40;99.90
7000;DHT22;3540;53.242;10.408;2023-04-03T17:18:33;5.40;99.90
7000;DHT22;3540;53.242;10.408;2023-04-03T17:21:00;5.20;99.90
7000;DHT22;3540;53.242;10.408;2023-04-03T17:23:27;5.20;99.90
7000;DHT22;3540;53.242;10.408;2023-04-03T17:25:56;5.10;99.90
7000;DHT22;3540;53.242;10.408;2023-04-03T17:28:22;5.00;99.90
7000;DHT22;3540;53.242;10.408;2023-04-03T17:30:56;5.00;99.90
7000;DHT22;3540;53.242;10.408;2023-04-03T17:33:23;4.90;99.90
7000;DHT22;3540;53.242;10.408;2023-04-03T17:35:49;4.80;99.90
7000;DHT22;3540;53.242;10.408;2023-04-03T17:38:15;4.90;99.90
7000;DHT22;3540;53.242;10.408;2023-04-03T17:40:41;4.80;99.90
7000;DHT22;3540;53.242;10.408;2023-04-03T17:43:09;4.70;99.90
7000;DHT22;3540;53.242;10.408;2023-04-03T17:45:35;4.70;99.90
7000;DHT22;3540;53.242;10.408;2023-04-03T17:48:01;4.60;99.90
7000;DHT22;3540;53.242;10.408;2023-04-03T17:50:27;4.60;99.90
7000;DHT22;3540;53.242;10.408;2023-04-03T17:52:53;4.50;99.90
7000;DHT22;3540;53.242;10.408;2023-04-03T17:55:18;4.40;99.90